createdAt,value
2023-08-18T00:01:47.625Z,14.52
2023-08-18T00:04:51.171Z,18.80
2023-08-18T00:07:54.762Z,15.60
2023-08-18T00:10:58.194Z,19.20
2023-08-18T00:14:01.563Z,19.95
2023-08-18T00:17:05.229Z,19.42
2023-08-18T00:20:10.092Z,19.13
2023-08-18T00:23:13.597Z,21.50
2023-08-18T00:26:16.977Z,17.98
2023-08-18T00:29:20.794Z,21.83
2023-08-18T00:32:24.960Z,18.63
2023-08-18T00:35:29.067Z,18.90
2023-08-18T00:38:32.636Z,15.93
2023-08-18T00:41:36.018Z,18.13
2023-08-18T00:44:39.478Z,18.02
2023-08-18T00:47:44.111Z,16.15
2023-08-18T00:50:47.930Z,18.27
2023-08-18T00:53:51.400Z,17.23
2023-08-18T00:56:55.028Z,18.60
2023-08-18T00:59:59.189Z,18.73
2023-08-18T01:03:05.265Z,16.30
2023-08-18T01:06:08.817Z,18.70
2023-08-18T01:09:12.281Z,17.40
2023-08-18T01:12:37.441Z,22.70
2023-08-18T01:15:44.043Z,20.88
2023-08-18T01:18:49.976Z,18.80
2023-08-18T01:21:57.002Z,20.33
2023-08-18T01:25:04.432Z,20.17
2023-08-18T01:28:08.319Z,19.38
2023-08-18T01:31:27.198Z,15.40
2023-08-18T01:34:32.248Z,17.58
2023-08-18T01:37:36.957Z,19.10
2023-08-18T01:40:42.137Z,20.80
2023-08-18T01:43:45.861Z,20.40
2023-08-18T01:46:49.278Z,20.05
2023-08-18T01:49:52.701Z,17.55
2023-08-18T01:52:56.059Z,14.53
2023-08-18T01:56:04.242Z,23.20
2023-08-18T01:59:07.653Z,22.50
2023-08-18T02:14:34.059Z,13.50
2023-08-18T02:17:38.053Z,13.90
2023-08-18T02:20:41.440Z,14.47
2023-08-18T02:23:45.008Z,15.87
2023-08-18T02:26:48.353Z,15.40
2023-08-18T02:29:53.248Z,16.67
2023-08-18T02:32:56.617Z,16.42
2023-08-18T02:36:00.353Z,16.53
2023-08-18T02:39:03.905Z,19.33
2023-08-18T02:42:07.692Z,16.33
2023-08-18T02:45:11.238Z,20.23
2023-08-18T02:48:14.759Z,13.85
2023-08-18T02:51:18.824Z,16.20
2023-08-18T02:54:22.198Z,14.90
2023-08-18T02:57:25.857Z,14.75
2023-08-18T03:00:29.233Z,14.45
2023-08-18T03:03:35.383Z,14.45
2023-08-18T03:06:38.867Z,15.83
2023-08-18T03:09:43.350Z,16.50
2023-08-18T03:12:46.625Z,15.68
2023-08-18T03:15:50.061Z,14.07
2023-08-18T03:18:53.434Z,12.68
2023-08-18T03:21:56.885Z,13.53
2023-08-18T03:25:01.794Z,15.47
2023-08-18T03:28:05.617Z,13.07
2023-08-18T03:31:09.397Z,14.27
2023-08-18T03:34:13.533Z,14.15
2023-08-18T03:37:16.908Z,15.37
2023-08-18T03:40:20.232Z,15.87
2023-08-18T03:43:23.618Z,16.15
2023-08-18T03:46:27.484Z,16.67
2023-08-18T03:49:33.119Z,17.63
2023-08-18T03:52:37.623Z,18.80
2023-08-18T03:55:42.204Z,13.97
2023-08-18T03:58:45.897Z,20.23
2023-08-18T04:01:49.351Z,16.17
2023-08-18T04:04:53.596Z,16.17
2023-08-18T04:07:56.973Z,14.47
2023-08-18T04:11:00.513Z,15.00
2023-08-18T04:14:04.473Z,14.18
2023-08-18T04:17:08.301Z,17.08
2023-08-18T04:20:11.855Z,14.77
2023-08-18T04:23:15.298Z,17.47
2023-08-18T04:26:18.689Z,12.90
2023-08-18T04:29:22.725Z,15.82
2023-08-18T04:32:27.061Z,14.73
2023-08-18T04:35:30.826Z,15.35
2023-08-18T04:38:34.887Z,12.67
2023-08-18T04:41:41.763Z,15.27
2023-08-18T04:44:45.180Z,14.60
2023-08-18T04:47:49.816Z,14.18
2023-08-18T04:50:53.747Z,15.40
2023-08-18T04:53:57.355Z,16.90
2023-08-18T04:57:01.251Z,17.93
2023-08-18T05:00:07.975Z,15.15
2023-08-18T05:03:12.520Z,15.75
2023-08-18T05:06:16.530Z,16.02
2023-08-18T05:09:19.980Z,19.47
2023-08-18T05:12:23.387Z,17.53
2023-08-18T05:15:26.734Z,17.90
2023-08-18T05:18:30.369Z,19.80
2023-08-18T05:21:33.790Z,16.73
2023-08-18T05:24:37.066Z,15.10
2023-08-18T05:27:40.312Z,15.60
2023-08-18T05:30:47.970Z,16.85
2023-08-18T05:33:51.426Z,18.50
2023-08-18T05:36:55.337Z,13.65
2023-08-18T05:39:58.631Z,12.32
2023-08-18T05:43:01.942Z,15.40
2023-08-18T05:46:06.362Z,15.18
2023-08-18T05:49:11.305Z,16.42
2023-08-18T05:52:14.678Z,15.52
2023-08-18T05:55:18.039Z,16.05
2023-08-18T05:58:22.037Z,13.50
2023-08-18T06:01:26.560Z,17.15
2023-08-18T06:04:30.092Z,13.60
2023-08-18T06:07:33.435Z,14.38
2023-08-18T06:10:36.834Z,12.80
2023-08-18T06:13:40.245Z,13.40
2023-08-18T06:16:43.609Z,15.48
2023-08-18T06:19:46.905Z,12.73
2023-08-18T06:22:50.256Z,13.57
2023-08-18T06:25:57.720Z,12.15
2023-08-18T06:29:00.970Z,13.67
2023-08-18T06:32:04.455Z,12.93
2023-08-18T06:35:08.105Z,13.43
2023-08-18T06:38:11.494Z,13.48
2023-08-18T06:41:14.823Z,13.45
2023-08-18T06:44:18.172Z,15.50
2023-08-18T06:47:22.110Z,12.48
2023-08-18T06:50:25.491Z,14.65
2023-08-18T06:53:29.130Z,11.25
2023-08-18T06:56:32.511Z,13.63
2023-08-18T06:59:35.970Z,13.57
2023-08-18T07:02:39.578Z,13.32
2023-08-18T07:05:42.989Z,15.02
2023-08-18T07:08:46.353Z,13.02
2023-08-18T07:11:49.702Z,14.73
2023-08-18T07:14:53.169Z,13.87
2023-08-18T07:17:57.295Z,14.85
2023-08-18T07:21:00.959Z,14.85
2023-08-18T07:24:04.512Z,17.45
2023-08-18T07:27:08.346Z,15.18
2023-08-18T07:30:13.343Z,15.10
2023-08-18T07:33:16.985Z,17.48
2023-08-18T07:36:20.379Z,16.35
2023-08-18T07:39:23.728Z,14.23
2023-08-18T07:42:27.354Z,13.45
2023-08-18T07:45:31.125Z,13.17
2023-08-18T07:48:34.582Z,14.68
2023-08-18T07:51:38.652Z,13.98
2023-08-18T07:54:42.402Z,13.60
2023-08-18T07:57:45.786Z,14.63
2023-08-18T08:00:49.506Z,14.07
2023-08-18T08:03:52.909Z,15.77
2023-08-18T08:06:57.491Z,13.93
2023-08-18T08:10:04.454Z,13.00
2023-08-18T08:13:07.734Z,13.85
2023-08-18T08:16:11.202Z,15.67
2023-08-18T08:19:18.386Z,11.82
2023-08-18T08:22:21.912Z,13.35
2023-08-18T08:25:25.336Z,12.40
2023-08-18T08:28:29.041Z,13.10
2023-08-18T08:31:32.856Z,12.63
2023-08-18T08:34:39.180Z,12.98
2023-08-18T08:37:42.618Z,13.75
2023-08-18T08:40:46.045Z,15.80
2023-08-18T08:43:49.396Z,12.05
2023-08-18T08:46:54.201Z,14.67
2023-08-18T08:50:03.057Z,13.45
2023-08-18T08:53:07.827Z,11.18
2023-08-18T08:56:11.778Z,10.82
2023-08-18T08:59:18.485Z,13.55
2023-08-18T09:02:23.045Z,12.90
2023-08-18T09:05:29.612Z,12.68
2023-08-18T09:08:33.061Z,13.77
2023-08-18T09:11:43.750Z,15.15
2023-08-18T09:14:47.173Z,12.15
2023-08-18T09:17:52.529Z,13.37
2023-08-18T09:20:57.512Z,14.80
2023-08-18T09:24:04.835Z,12.38
2023-08-18T09:27:09.997Z,13.88
2023-08-18T09:30:13.623Z,10.82
2023-08-18T09:33:19.482Z,11.07
2023-08-18T09:36:26.405Z,12.60
2023-08-18T09:39:29.721Z,13.52
2023-08-18T09:42:33.571Z,12.13
2023-08-18T09:45:41.837Z,10.63
2023-08-18T09:48:48.474Z,11.57
2023-08-18T09:52:13.688Z,12.63
2023-08-18T09:55:19.930Z,11.07
2023-08-18T09:58:46.531Z,11.57
2023-08-18T10:01:52.779Z,12.32
2023-08-18T10:04:56.478Z,10.87
2023-08-18T10:08:00.420Z,10.77
2023-08-18T10:11:04.092Z,11.05
2023-08-18T10:14:07.882Z,11.40
2023-08-18T10:17:13.486Z,12.20
2023-08-18T10:20:16.921Z,12.00
2023-08-18T10:23:21.130Z,12.02
2023-08-18T10:26:27.585Z,13.57
2023-08-18T10:29:35.375Z,11.35
2023-08-18T10:32:39.979Z,10.18
2023-08-18T10:35:44.955Z,11.73
2023-08-18T10:38:48.372Z,10.52
2023-08-18T10:42:12.175Z,12.45
2023-08-18T10:45:25.750Z,11.18
2023-08-18T10:48:36.173Z,11.02
2023-08-18T10:51:41.024Z,11.87
2023-08-18T10:54:44.325Z,12.80
2023-08-18T10:57:47.899Z,12.77
2023-08-18T11:00:51.405Z,12.00
2023-08-18T11:03:54.841Z,12.20
2023-08-18T11:06:58.467Z,11.50
2023-08-18T11:10:01.961Z,12.10
2023-08-18T11:13:05.582Z,10.75
2023-08-18T11:16:09.610Z,12.18
2023-08-18T11:19:12.957Z,11.48
2023-08-18T11:22:17.439Z,12.67
2023-08-18T11:25:24.175Z,10.32
2023-08-18T11:28:28.389Z,11.80
2023-08-18T11:31:32.055Z,10.73
2023-08-18T11:34:35.699Z,15.10
2023-08-18T11:37:44.048Z,10.20
2023-08-18T11:40:49.303Z,11.55
2023-08-18T11:43:52.702Z,10.57
2023-08-18T11:46:59.761Z,9.82
2023-08-18T11:50:06.464Z,10.88
2023-08-18T11:53:10.948Z,11.17
2023-08-18T11:56:14.685Z,11.90
2023-08-18T11:59:24.845Z,10.93
2023-08-18T12:02:31.338Z,12.63
2023-08-18T12:05:40.298Z,16.77
2023-08-18T12:08:43.762Z,11.93
2023-08-18T12:11:47.225Z,11.98
2023-08-18T12:14:50.568Z,12.25
2023-08-18T12:17:55.000Z,11.95
2023-08-18T12:20:58.330Z,11.10
2023-08-18T12:24:05.917Z,12.13
2023-08-18T12:27:09.370Z,11.48
2023-08-18T12:30:13.458Z,11.68
2023-08-18T12:33:16.781Z,12.15
2023-08-18T12:36:20.565Z,13.52
2023-08-18T12:39:23.929Z,11.63
2023-08-18T12:42:27.721Z,10.98
2023-08-18T12:45:31.201Z,12.00
2023-08-18T12:48:34.748Z,10.60
2023-08-18T12:51:37.996Z,11.27
2023-08-18T12:54:42.144Z,12.87
2023-08-18T12:57:46.503Z,12.88
2023-08-18T13:00:50.157Z,13.40
2023-08-18T13:03:53.728Z,13.15
2023-08-18T13:06:57.128Z,10.82
2023-08-18T13:10:00.479Z,11.23
2023-08-18T13:13:03.793Z,11.52
2023-08-18T13:16:07.161Z,11.38
2023-08-18T13:19:10.839Z,13.60
2023-08-18T13:22:15.026Z,12.73
2023-08-18T13:25:30.858Z,10.50
2023-08-18T13:28:37.690Z,12.00
2023-08-18T13:31:41.517Z,10.73
2023-08-18T13:34:45.096Z,11.27
2023-08-18T13:37:48.728Z,10.80
2023-08-18T13:40:52.151Z,9.50
2023-08-18T13:43:55.940Z,12.82
2023-08-18T13:46:59.337Z,15.25
2023-08-18T13:50:02.671Z,11.00
2023-08-18T13:53:06.644Z,10.68
2023-08-18T13:56:10.105Z,10.10
2023-08-18T13:59:13.667Z,10.43
2023-08-18T14:02:17.123Z,14.13
2023-08-18T14:05:20.648Z,10.27
2023-08-18T14:08:24.085Z,9.85
2023-08-18T14:11:27.537Z,10.00
2023-08-18T14:14:30.960Z,12.13
2023-08-18T14:17:37.073Z,9.73
2023-08-18T14:20:40.544Z,9.10
2023-08-18T14:23:44.014Z,11.18
2023-08-18T14:26:47.393Z,12.53
2023-08-18T14:29:50.816Z,10.10
2023-08-18T14:32:54.383Z,10.60
2023-08-18T14:35:57.806Z,10.57
2023-08-18T14:39:01.156Z,13.85
2023-08-18T14:42:04.770Z,9.60
2023-08-18T14:45:08.877Z,9.35
2023-08-18T14:48:12.929Z,13.23
2023-08-18T14:51:16.293Z,9.10
2023-08-18T14:54:19.789Z,8.65
2023-08-18T14:57:23.550Z,9.57
2023-08-18T15:00:26.934Z,14.40
2023-08-18T15:03:30.475Z,10.93
2023-08-18T15:06:34.074Z,9.57
2023-08-18T15:09:37.431Z,9.60
2023-08-18T15:12:41.075Z,10.10
2023-08-18T15:15:44.447Z,9.73
2023-08-18T15:18:47.841Z,10.50
2023-08-18T15:21:51.358Z,9.82
2023-08-18T15:24:55.798Z,10.02
2023-08-18T15:27:59.202Z,10.47
2023-08-18T15:31:04.191Z,8.40
2023-08-18T15:34:07.694Z,11.70
2023-08-18T15:37:11.076Z,11.63
2023-08-18T15:40:14.509Z,8.90
2023-08-18T15:43:17.870Z,9.60
2023-08-18T15:46:21.260Z,10.02
2023-08-18T15:49:24.944Z,10.70
2023-08-18T15:52:28.267Z,16.40
2023-08-18T15:55:31.714Z,10.13
2023-08-18T15:58:35.121Z,11.70
2023-08-18T16:01:38.568Z,11.07
2023-08-18T16:04:42.376Z,10.00
2023-08-18T16:07:45.805Z,11.77
2023-08-18T16:10:49.208Z,12.70
2023-08-18T16:14:14.114Z,9.70
2023-08-18T16:17:16.095Z,11.50
2023-08-18T16:20:19.621Z,13.48
2023-08-18T16:23:23.505Z,13.25
2023-08-18T16:26:26.878Z,10.02
2023-08-18T16:29:30.310Z,11.73
2023-08-18T16:32:33.776Z,10.45
2023-08-18T16:35:37.190Z,12.50
2023-08-18T16:38:41.357Z,11.18
2023-08-18T16:41:44.753Z,11.15
2023-08-18T16:44:48.106Z,12.67
2023-08-18T16:47:51.603Z,12.32
2023-08-18T16:50:55.045Z,11.70
2023-08-18T16:53:58.426Z,13.73
2023-08-18T16:57:02.026Z,14.10
2023-08-18T17:00:06.045Z,11.07
2023-08-18T17:03:09.896Z,10.45
2023-08-18T17:06:13.376Z,14.23
2023-08-18T17:09:16.819Z,12.25
2023-08-18T17:12:20.236Z,10.35
2023-08-18T17:15:23.659Z,12.37
2023-08-18T17:18:27.136Z,11.52
2023-08-18T17:21:31.596Z,15.20
2023-08-18T17:24:34.993Z,14.63
2023-08-18T17:27:39.737Z,13.20
2023-08-18T17:30:45.919Z,11.70
2023-08-18T17:33:49.506Z,13.07
2023-08-18T17:36:55.242Z,12.70
2023-08-18T17:39:58.731Z,14.40
2023-08-18T17:43:02.998Z,12.15
2023-08-18T17:46:06.486Z,12.63
2023-08-18T17:49:09.788Z,14.70
2023-08-18T17:52:15.626Z,21.05
2023-08-18T17:55:19.318Z,19.90
2023-08-18T17:58:23.181Z,16.70
2023-08-18T18:01:26.528Z,20.17
2023-08-18T18:04:30.046Z,15.70
2023-08-18T18:07:33.657Z,14.23
2023-08-18T18:10:40.794Z,13.77
2023-08-18T18:13:44.140Z,15.35
2023-08-18T18:16:47.515Z,15.13
2023-08-18T18:19:51.311Z,14.55
2023-08-18T18:22:54.672Z,15.07
2023-08-18T18:25:58.045Z,12.65
2023-08-18T18:29:05.699Z,16.73
2023-08-18T18:32:11.289Z,18.20
2023-08-18T18:35:14.836Z,13.10
2023-08-18T18:38:18.187Z,13.40
2023-08-18T18:41:21.486Z,12.20
2023-08-18T18:44:24.836Z,15.07
2023-08-18T18:47:31.153Z,14.73
2023-08-18T18:50:34.661Z,12.98
2023-08-18T18:53:38.025Z,12.85
2023-08-18T18:56:42.234Z,15.02
2023-08-18T18:59:46.700Z,12.77
2023-08-18T19:02:50.170Z,11.97
2023-08-18T19:05:53.765Z,15.93
2023-08-18T19:08:57.117Z,14.40
2023-08-18T19:12:00.508Z,17.90
2023-08-18T19:15:04.356Z,17.20
2023-08-18T19:18:15.084Z,15.70
2023-08-18T19:21:19.633Z,16.70
2023-08-18T19:24:23.461Z,39.88
2023-08-18T19:27:28.625Z,15.60
2023-08-18T19:30:33.718Z,13.75
2023-08-18T19:33:37.166Z,12.10
2023-08-18T19:36:40.579Z,13.23
2023-08-18T19:39:44.054Z,13.32
2023-08-18T19:42:47.745Z,12.70
2023-08-18T19:46:01.828Z,14.32
2023-08-18T19:49:05.269Z,11.90
2023-08-18T19:52:08.851Z,16.13
2023-08-18T19:55:12.288Z,13.00
2023-08-18T19:58:16.216Z,13.02
2023-08-18T20:01:19.743Z,15.05
2023-08-18T20:04:23.454Z,13.07
2023-08-18T20:07:27.260Z,12.90
2023-08-18T20:10:33.440Z,16.15
2023-08-18T20:13:37.180Z,13.05
2023-08-18T20:16:42.341Z,16.08
2023-08-18T20:19:46.029Z,14.43
2023-08-18T20:22:49.779Z,13.68
2023-08-18T20:25:53.253Z,14.32
2023-08-18T20:28:56.786Z,16.63
2023-08-18T20:32:00.092Z,13.88
2023-08-18T20:35:03.985Z,16.70
2023-08-18T20:38:07.456Z,14.77
2023-08-18T20:41:12.182Z,13.95
2023-08-18T20:44:16.270Z,15.30
2023-08-18T20:47:19.683Z,17.07
2023-08-18T20:50:23.160Z,16.60
2023-08-18T20:53:26.773Z,14.98
2023-08-18T20:56:30.076Z,14.70
2023-08-18T20:59:33.442Z,14.95
2023-08-18T21:02:37.269Z,19.40
2023-08-18T21:05:44.756Z,13.27
2023-08-18T21:08:48.270Z,15.50
2023-08-18T21:11:51.664Z,17.38
2023-08-18T21:14:55.135Z,15.25
2023-08-18T21:17:58.572Z,18.67
2023-08-18T21:21:02.059Z,19.00
2023-08-18T21:24:07.149Z,19.40
2023-08-18T21:27:11.085Z,18.02
2023-08-18T21:30:16.998Z,19.25
2023-08-18T21:33:20.426Z,19.93
2023-08-18T21:36:25.734Z,16.80
2023-08-18T21:39:29.087Z,15.27
2023-08-18T21:42:34.082Z,17.08
2023-08-18T21:45:37.629Z,16.45
2023-08-18T21:48:42.179Z,20.73
2023-08-18T21:51:45.813Z,17.63
2023-08-18T21:54:49.303Z,17.52
2023-08-18T21:57:52.688Z,18.85
2023-08-18T22:01:00.034Z,17.48
2023-08-18T22:04:03.526Z,16.17
2023-08-18T22:07:06.833Z,20.43
2023-08-18T22:10:10.577Z,18.02
2023-08-18T22:13:14.262Z,18.25
2023-08-18T22:16:17.725Z,18.63
2023-08-18T22:19:21.201Z,18.97
2023-08-18T22:22:34.075Z,21.30
2023-08-18T22:25:38.099Z,18.05
2023-08-18T22:28:41.436Z,18.80
2023-08-18T22:31:44.815Z,19.63
2023-08-18T22:34:48.739Z,20.50
2023-08-18T22:37:52.112Z,19.80
2023-08-18T22:41:02.940Z,20.25
2023-08-18T22:44:06.583Z,21.38
2023-08-18T22:47:12.729Z,19.15
2023-08-18T22:50:19.981Z,22.87
2023-08-18T22:53:23.396Z,18.43
2023-08-18T22:56:26.770Z,18.98
2023-08-18T22:59:30.763Z,22.02
2023-08-18T23:02:34.283Z,22.40
2023-08-18T23:05:40.555Z,23.00
2023-08-18T23:08:43.932Z,22.03
2023-08-18T23:11:47.718Z,23.00
2023-08-18T23:14:51.131Z,20.55
2023-08-18T23:17:54.632Z,23.45
2023-08-18T23:20:57.981Z,20.97
2023-08-18T23:24:01.468Z,21.03
2023-08-18T23:27:04.949Z,23.23
2023-08-18T23:30:09.141Z,24.05
2023-08-18T23:33:12.490Z,21.42
2023-08-18T23:36:15.895Z,19.90
2023-08-18T23:39:20.256Z,24.20
2023-08-18T23:42:23.838Z,22.80
2023-08-18T23:45:27.138Z,26.42
2023-08-18T23:48:40.250Z,21.60
2023-08-18T23:51:43.691Z,25.27
2023-08-18T23:54:47.040Z,22.13
2023-08-18T23:57:50.488Z,23.15
